Campbell Island, Canada
Current Conditions -  °F | °C
As of 8:00 PM on Friday 19 Dec 2014 (Local Time) from CBBC Reporting Station
Light Rain Light Rain  
Wind Chill: 41°   Ceiling: 4300
Heat Index: 45°   Visibility: 9mi
Dew Point: 41°   Wind: 7mph
Humidity: 87%   Direction: 130°SE
Pressure: 29.52"   Gusts: NA
Location:  52.16°N, 128.14°W
Report Text: CBBC 200400Z AUTO 13006KT 9SM -RA FEW030 OVC043 07/05 A2952 RMK SLP998
Loading
Personal Weather Stations






























Interactive Weather Map New forecast layout! Learn more

10-Day Weather Forecast

Advertisements
Track Severe Weather on mobile